sensor_id;sensor_type;location;lat;lon;timestamp;pressure;altitude;pressure_sealevel;temperature;humidity
55916;BME280;41826;53.246;-6.670;2023-05-19T00:00:46;99944.81;;;16.01;100.00
55916;BME280;41826;53.246;-6.670;2023-05-19T00:03:12;99977.00;;;16.04;100.00
55916;BME280;41826;53.246;-6.670;2023-05-19T00:05:41;99952.91;;;15.86;100.00
55916;BME280;41826;53.246;-6.670;2023-05-19T00:08:10;100071.56;;;16.11;100.00
55916;BME280;41826;53.246;-6.670;2023-05-19T00:10:36;100104.97;;;16.12;100.00
55916;BME280;41826;53.246;-6.670;2023-05-19T00:13:02;100098.41;;;16.08;100.00
55916;BME280;41826;53.246;-6.670;2023-05-19T00:15:27;100174.44;;;16.14;100.00
55916;BME280;41826;53.246;-6.670;2023-05-19T00:17:53;100083.81;;;15.84;100.00
55916;BME280;41826;53.246;-6.670;2023-05-19T00:20:22;100019.03;;;15.79;100.00
55916;BME280;41826;53.246;-6.670;2023-05-19T00:22:47;100096.50;;;15.95;100.00
55916;BME280;41826;53.246;-6.670;2023-05-19T00:25:13;100055.91;;;15.81;100.00
55916;BME280;41826;53.246;-6.670;2023-05-19T00:27:38;100132.16;;;15.99;100.00
55916;BME280;41826;53.246;-6.670;2023-05-19T00:30:04;100161.13;;;16.00;100.00
55916;BME280;41826;53.246;-6.670;2023-05-19T00:32:30;100138.59;;;15.90;100.00
55916;BME280;41826;53.246;-6.670;2023-05-19T00:34:55;100121.53;;;15.92;100.00
55916;BME280;41826;53.246;-6.670;2023-05-19T00:37:20;99998.13;;;15.63;100.00
55916;BME280;41826;53.246;-6.670;2023-05-19T00:39:47;99989.00;;;15.66;100.00
55916;BME280;41826;53.246;-6.670;2023-05-19T00:42:13;99970.03;;;15.62;100.00
55916;BME280;41826;53.246;-6.670;2023-05-19T00:44:39;99999.59;;;15.66;100.00
55916;BME280;41826;53.246;-6.670;2023-05-19T00:47:06;99954.88;;;15.43;100.00
55916;BME280;41826;53.246;-6.670;2023-05-19T00:49:31;100006.41;;;15.75;100.00
55916;BME280;41826;53.246;-6.670;2023-05-19T00:51:58;99997.56;;;15.68;100.00
55916;BME280;41826;53.246;-6.670;2023-05-19T00:54:25;99953.91;;;15.50;100.00
55916;BME280;41826;53.246;-6.670;2023-05-19T00:56:50;100004.97;;;15.72;100.00
55916;BME280;41826;53.246;-6.670;2023-05-19T00:59:16;99973.66;;;15.26;100.00
55916;BME280;41826;53.246;-6.670;2023-05-19T01:01:42;99972.41;;;15.50;100.00
55916;BME280;41826;53.246;-6.670;2023-05-19T01:04:07;99968.28;;;15.41;100.00
55916;BME280;41826;53.246;-6.670;2023-05-19T01:06:35;99994.44;;;15.57;100.00
55916;BME280;41826;53.246;-6.670;2023-05-19T01:09:03;99972.22;;;15.24;100.00
55916;BME280;41826;53.246;-6.670;2023-05-19T01:11:28;99973.84;;;15.25;100.00
55916;BME280;41826;53.246;-6.670;2023-05-19T01:13:54;99977.75;;;15.29;100.00
55916;BME280;41826;53.246;-6.670;2023-05-19T01:25:36;99999.34;;;15.11;100.00
55916;BME280;41826;53.246;-6.670;2023-05-19T01:31:05;99962.06;;;14.56;100.00
55916;BME280;41826;53.246;-6.670;2023-05-19T01:33:32;99926.16;;;14.47;100.00
55916;BME280;41826;53.246;-6.670;2023-05-19T01:36:02;99917.66;;;14.66;100.00
55916;BME280;41826;53.246;-6.670;2023-05-19T01:38:28;99915.69;;;14.75;100.00
55916;BME280;41826;53.246;-6.670;2023-05-19T01:40:55;99921.94;;;14.67;100.00
55916;BME280;41826;53.246;-6.670;2023-05-19T01:43:24;99935.91;;;14.10;100.00
55916;BME280;41826;53.246;-6.670;2023-05-19T01:45:50;99894.53;;;13.07;100.00
55916;BME280;41826;53.246;-6.670;2023-05-19T01:48:17;99994.84;;;12.82;100.00
55916;BME280;41826;53.246;-6.670;2023-05-19T01:50:43;100137.53;;;12.54;100.00
55916;BME280;41826;53.246;-6.670;2023-05-19T01:53:09;100122.72;;;12.53;100.00
55916;BME280;41826;53.246;-6.670;2023-05-19T01:55:45;100175.63;;;12.03;100.00
55916;BME280;41826;53.246;-6.670;2023-05-19T02:01:26;100466.88;;;12.19;100.00
55916;BME280;41826;53.246;-6.670;2023-05-19T02:09:14;100612.34;;;11.85;100.00
55916;BME280;41826;53.246;-6.670;2023-05-19T02:11:53;100693.44;;;12.07;100.00
55916;BME280;41826;53.246;-6.670;2023-05-19T02:14:40;100721.50;;;12.17;100.00
55916;BME280;41826;53.246;-6.670;2023-05-19T02:17:07;100734.91;;;12.05;100.00
55916;BME280;41826;53.246;-6.670;2023-05-19T02:19:35;100760.97;;;11.99;100.00
55916;BME280;41826;53.246;-6.670;2023-05-19T02:22:01;100763.97;;;11.86;100.00
55916;BME280;41826;53.246;-6.670;2023-05-19T02:24:26;100794.75;;;11.58;100.00
55916;BME280;41826;53.246;-6.670;2023-05-19T02:26:53;100829.09;;;11.74;100.00
55916;BME280;41826;53.246;-6.670;2023-05-19T02:29:19;100838.56;;;11.85;100.00
55916;BME280;41826;53.246;-6.670;2023-05-19T02:31:45;100832.31;;;12.13;100.00
55916;BME280;41826;53.246;-6.670;2023-05-19T02:34:10;100797.06;;;12.06;100.00
55916;BME280;41826;53.246;-6.670;2023-05-19T02:36:38;100803.44;;;11.58;100.00
55916;BME280;41826;53.246;-6.670;2023-05-19T02:39:05;100861.56;;;11.27;100.00
55916;BME280;41826;53.246;-6.670;2023-05-19T02:41:30;100862.03;;;11.50;100.00
55916;BME280;41826;53.246;-6.670;2023-05-19T02:43:56;100850.56;;;11.42;100.00
55916;BME280;41826;53.246;-6.670;2023-05-19T02:46:22;100863.59;;;11.34;100.00
55916;BME280;41826;53.246;-6.670;2023-05-19T02:48:47;100867.88;;;11.44;100.00
55916;BME280;41826;53.246;-6.670;2023-05-19T02:51:13;100891.59;;;11.62;100.00
55916;BME280;41826;53.246;-6.670;2023-05-19T02:53:38;100871.25;;;11.27;100.00
55916;BME280;41826;53.246;-6.670;2023-05-19T02:56:04;100906.50;;;11.62;100.00
55916;BME280;41826;53.246;-6.670;2023-05-19T02:58:29;100892.06;;;11.76;100.00
55916;BME280;41826;53.246;-6.670;2023-05-19T03:00:55;100731.59;;;12.03;100.00
55916;BME280;41826;53.246;-6.670;2023-05-19T03:03:21;100614.88;;;12.12;100.00
55916;BME280;41826;53.246;-6.670;2023-05-19T03:05:47;100361.47;;;12.36;100.00
55916;BME280;41826;53.246;-6.670;2023-05-19T03:08:12;100263.59;;;12.41;100.00
55916;BME280;41826;53.246;-6.670;2023-05-19T03:10:38;100322.78;;;12.04;100.00
55916;BME280;41826;53.246;-6.670;2023-05-19T03:13:03;100375.03;;;11.91;100.00
55916;BME280;41826;53.246;-6.670;2023-05-19T03:15:28;100429.53;;;11.73;100.00
55916;BME280;41826;53.246;-6.670;2023-05-19T03:17:54;100498.47;;;11.32;100.00
55916;BME280;41826;53.246;-6.670;2023-05-19T03:20:20;100502.53;;;11.79;100.00
55916;BME280;41826;53.246;-6.670;2023-05-19T03:22:45;100374.91;;;12.01;100.00
55916;BME280;41826;53.246;-6.670;2023-05-19T03:25:11;100197.78;;;12.41;100.00
55916;BME280;41826;53.246;-6.670;2023-05-19T03:27:36;100082.78;;;12.73;100.00
55916;BME280;41826;53.246;-6.670;2023-05-19T03:30:02;100056.03;;;12.61;100.00
55916;BME280;41826;53.246;-6.670;2023-05-19T03:32:27;100091.13;;;12.53;100.00
55916;BME280;41826;53.246;-6.670;2023-05-19T03:34:53;100129.38;;;12.25;100.00
55916;BME280;41826;53.246;-6.670;2023-05-19T03:37:18;100164.25;;;11.86;100.00
55916;BME280;41826;53.246;-6.670;2023-05-19T03:39:43;100203.25;;;11.90;100.00
55916;BME280;41826;53.246;-6.670;2023-05-19T03:42:09;100208.31;;;11.84;100.00
55916;BME280;41826;53.246;-6.670;2023-05-19T03:44:34;100139.59;;;12.11;100.00
55916;BME280;41826;53.246;-6.670;2023-05-19T03:47:00;100151.13;;;12.02;100.00
55916;BME280;41826;53.246;-6.670;2023-05-19T03:49:25;100212.22;;;11.55;100.00
55916;BME280;41826;53.246;-6.670;2023-05-19T03:51:51;100252.31;;;11.57;100.00
55916;BME280;41826;53.246;-6.670;2023-05-19T03:54:16;100262.69;;;11.67;100.00
55916;BME280;41826;53.246;-6.670;2023-05-19T03:56:42;100332.03;;;11.32;100.00
55916;BME280;41826;53.246;-6.670;2023-05-19T03:59:07;100333.13;;;11.47;100.00
55916;BME280;41826;53.246;-6.670;2023-05-19T04:01:35;100351.88;;;11.52;100.00
55916;BME280;41826;53.246;-6.670;2023-05-19T04:04:01;100351.16;;;11.42;100.00
55916;BME280;41826;53.246;-6.670;2023-05-19T04:06:26;100405.13;;;11.28;100.00
55916;BME280;41826;53.246;-6.670;2023-05-19T04:08:52;100482.25;;;11.19;100.00
55916;BME280;41826;53.246;-6.670;2023-05-19T04:11:17;100571.56;;;11.01;100.00
55916;BME280;41826;53.246;-6.670;2023-05-19T04:13:44;100639.22;;;10.99;100.00
55916;BME280;41826;53.246;-6.670;2023-05-19T04:16:10;100683.75;;;11.18;100.00
55916;BME280;41826;53.246;-6.670;2023-05-19T04:18:35;100715.22;;;11.00;100.00
55916;BME280;41826;53.246;-6.670;2023-05-19T04:21:01;100736.53;;;11.25;100.00
55916;BME280;41826;53.246;-6.670;2023-05-19T04:23:26;100505.16;;;11.79;100.00
55916;BME280;41826;53.246;-6.670;2023-05-19T04:25:51;100266.22;;;12.00;100.00
55916;BME280;41826;53.246;-6.670;2023-05-19T04:28:18;100204.72;;;12.01;100.00
55916;BME280;41826;53.246;-6.670;2023-05-19T04:30:43;100224.09;;;11.84;100.00
55916;BME280;41826;53.246;-6.670;2023-05-19T04:33:11;100161.31;;;11.89;100.00
55916;BME280;41826;53.246;-6.670;2023-05-19T04:35:37;100158.34;;;11.76;100.00
55916;BME280;41826;53.246;-6.670;2023-05-19T04:38:04;100237.63;;;11.38;100.00
55916;BME280;41826;53.246;-6.670;2023-05-19T04:40:29;100262.44;;;11.44;100.00
55916;BME280;41826;53.246;-6.670;2023-05-19T04:42:55;100277.72;;;11.40;100.00
55916;BME280;41826;53.246;-6.670;2023-05-19T04:45:21;100262.78;;;11.49;100.00
55916;BME280;41826;53.246;-6.670;2023-05-19T04:47:47;100246.22;;;11.48;100.00
55916;BME280;41826;53.246;-6.670;2023-05-19T04:50:13;100312.91;;;11.13;100.00
55916;BME280;41826;53.246;-6.670;2023-05-19T04:52:39;100429.25;;;10.61;100.00
55916;BME280;41826;53.246;-6.670;2023-05-19T04:55:07;100499.84;;;10.82;100.00
55916;BME280;41826;53.246;-6.670;2023-05-19T04:57:32;100545.75;;;10.78;100.00
55916;BME280;41826;53.246;-6.670;2023-05-19T04:59:58;100606.94;;;10.61;100.00
55916;BME280;41826;53.246;-6.670;2023-05-19T05:02:26;100658.38;;;10.81;100.00
55916;BME280;41826;53.246;-6.670;2023-05-19T05:04:56;100577.94;;;10.98;100.00
55916;BME280;41826;53.246;-6.670;2023-05-19T05:07:22;100438.56;;;11.18;100.00
55916;BME280;41826;53.246;-6.670;2023-05-19T05:09:48;100382.66;;;11.34;100.00
55916;BME280;41826;53.246;-6.670;2023-05-19T05:12:14;100326.00;;;11.39;100.00
55916;BME280;41826;53.246;-6.670;2023-05-19T05:14:40;100238.19;;;11.50;100.00
55916;BME280;41826;53.246;-6.670;2023-05-19T05:17:06;100262.16;;;11.47;100.00
55916;BME280;41826;53.246;-6.670;2023-05-19T05:19:32;100220.59;;;11.50;100.00
55916;BME280;41826;53.246;-6.670;2023-05-19T05:21:58;100213.03;;;11.47;100.00
55916;BME280;41826;53.246;-6.670;2023-05-19T05:24:23;100141.91;;;11.57;100.00
55916;BME280;41826;53.246;-6.670;2023-05-19T05:26:49;100184.28;;;11.46;100.00
55916;BME280;41826;53.246;-6.670;2023-05-19T05:29:15;100146.50;;;11.63;100.00
55916;BME280;41826;53.246;-6.670;2023-05-19T05:31:40;100115.94;;;11.79;100.00
55916;BME280;41826;53.246;-6.670;2023-05-19T05:34:06;100102.81;;;11.87;100.00
55916;BME280;41826;53.246;-6.670;2023-05-19T05:36:31;100122.50;;;11.75;100.00
55916;BME280;41826;53.246;-6.670;2023-05-19T05:38:59;100102.47;;;11.90;100.00
55916;BME280;41826;53.246;-6.670;2023-05-19T05:41:26;100101.44;;;12.16;100.00
55916;BME280;41826;53.246;-6.670;2023-05-19T05:43:53;100096.50;;;12.21;100.00
55916;BME280;41826;53.246;-6.670;2023-05-19T05:46:19;100080.84;;;12.27;100.00
55916;BME280;41826;53.246;-6.670;2023-05-19T05:48:45;100096.88;;;11.68;100.00
55916;BME280;41826;53.246;-6.670;2023-05-19T05:51:10;100170.16;;;11.47;100.00
55916;BME280;41826;53.246;-6.670;2023-05-19T05:53:40;100143.38;;;11.68;100.00
55916;BME280;41826;53.246;-6.670;2023-05-19T05:56:09;100164.19;;;11.37;100.00
55916;BME280;41826;53.246;-6.670;2023-05-19T05:58:35;100206.78;;;11.40;100.00
55916;BME280;41826;53.246;-6.670;2023-05-19T06:01:02;100187.09;;;11.69;100.00
55916;BME280;41826;53.246;-6.670;2023-05-19T06:03:28;100138.44;;;11.81;100.00
55916;BME280;41826;53.246;-6.670;2023-05-19T06:05:56;100114.16;;;11.96;100.00
55916;BME280;41826;53.246;-6.670;2023-05-19T06:08:21;100128.75;;;11.82;100.00
55916;BME280;41826;53.246;-6.670;2023-05-19T06:10:47;100130.56;;;11.81;100.00
55916;BME280;41826;53.246;-6.670;2023-05-19T06:13:12;100113.47;;;12.02;100.00
55916;BME280;41826;53.246;-6.670;2023-05-19T06:15:38;100066.22;;;12.25;100.00
55916;BME280;41826;53.246;-6.670;2023-05-19T06:18:03;100057.47;;;12.32;100.00
55916;BME280;41826;53.246;-6.670;2023-05-19T06:20:29;100023.34;;;12.47;100.00
55916;BME280;41826;53.246;-6.670;2023-05-19T06:22:54;100028.75;;;12.54;100.00
55916;BME280;41826;53.246;-6.670;2023-05-19T06:25:19;100017.44;;;12.45;100.00
55916;BME280;41826;53.246;-6.670;2023-05-19T06:27:45;100012.66;;;12.49;100.00
55916;BME280;41826;53.246;-6.670;2023-05-19T06:30:11;100006.88;;;12.53;100.00
55916;BME280;41826;53.246;-6.670;2023-05-19T06:32:36;100001.06;;;12.58;100.00
55916;BME280;41826;53.246;-6.670;2023-05-19T06:35:02;99997.75;;;12.64;100.00
55916;BME280;41826;53.246;-6.670;2023-05-19T06:37:28;99989.03;;;12.64;100.00
55916;BME280;41826;53.246;-6.670;2023-05-19T06:39:53;99981.16;;;12.64;100.00
55916;BME280;41826;53.246;-6.670;2023-05-19T06:42:22;99975.38;;;12.60;100.00
55916;BME280;41826;53.246;-6.670;2023-05-19T06:44:52;99970.94;;;12.61;100.00
55916;BME280;41826;53.246;-6.670;2023-05-19T06:47:17;99975.53;;;12.67;100.00
55916;BME280;41826;53.246;-6.670;2023-05-19T06:49:43;99989.56;;;12.82;100.00
55916;BME280;41826;53.246;-6.670;2023-05-19T06:52:10;99996.13;;;12.86;100.00
55916;BME280;41826;53.246;-6.670;2023-05-19T06:54:35;99986.75;;;12.84;100.00
55916;BME280;41826;53.246;-6.670;2023-05-19T06:57:01;100002.69;;;12.90;100.00
55916;BME280;41826;53.246;-6.670;2023-05-19T06:59:26;100009.41;;;12.93;100.00
55916;BME280;41826;53.246;-6.670;2023-05-19T07:01:52;100020.75;;;12.93;100.00
55916;BME280;41826;53.246;-6.670;2023-05-19T07:04:18;99968.66;;;12.80;100.00
55916;BME280;41826;53.246;-6.670;2023-05-19T07:06:44;99966.97;;;12.88;100.00
55916;BME280;41826;53.246;-6.670;2023-05-19T07:09:09;99981.00;;;13.03;100.00
55916;BME280;41826;53.246;-6.670;2023-05-19T07:11:34;99996.94;;;13.10;100.00
55916;BME280;41826;53.246;-6.670;2023-05-19T07:14:00;100015.69;;;13.15;100.00
55916;BME280;41826;53.246;-6.670;2023-05-19T07:16:26;100031.28;;;13.16;100.00
55916;BME280;41826;53.246;-6.670;2023-05-19T07:18:51;100022.69;;;13.22;100.00
55916;BME280;41826;53.246;-6.670;2023-05-19T07:21:16;100001.94;;;13.05;100.00
55916;BME280;41826;53.246;-6.670;2023-05-19T07:23:42;100001.41;;;13.09;100.00
55916;BME280;41826;53.246;-6.670;2023-05-19T07:26:07;100029.31;;;13.18;100.00
55916;BME280;41826;53.246;-6.670;2023-05-19T07:28:33;100036.34;;;13.26;100.00
55916;BME280;41826;53.246;-6.670;2023-05-19T07:30:59;100030.94;;;13.28;100.00
55916;BME280;41826;53.246;-6.670;2023-05-19T07:33:25;100017.66;;;12.90;100.00
55916;BME280;41826;53.246;-6.670;2023-05-19T07:35:51;100014.50;;;13.17;100.00
55916;BME280;41826;53.246;-6.670;2023-05-19T07:38:17;100014.38;;;13.34;100.00
55916;BME280;41826;53.246;-6.670;2023-05-19T07:40:42;100030.59;;;13.46;100.00
55916;BME280;41826;53.246;-6.670;2023-05-19T07:43:08;100041.44;;;13.51;100.00
55916;BME280;41826;53.246;-6.670;2023-05-19T07:45:33;100028.34;;;12.96;100.00
55916;BME280;41826;53.246;-6.670;2023-05-19T07:47:59;100011.09;;;13.09;100.00
55916;BME280;41826;53.246;-6.670;2023-05-19T07:50:24;99988.22;;;13.32;100.00
55916;BME280;41826;53.246;-6.670;2023-05-19T07:52:50;99984.59;;;13.48;100.00
55916;BME280;41826;53.246;-6.670;2023-05-19T07:55:16;99985.97;;;13.59;100.00
55916;BME280;41826;53.246;-6.670;2023-05-19T07:57:42;99991.81;;;13.69;100.00
55916;BME280;41826;53.246;-6.670;2023-05-19T08:00:09;99991.63;;;13.71;100.00
55916;BME280;41826;53.246;-6.670;2023-05-19T08:02:36;99988.72;;;13.80;100.00
55916;BME280;41826;53.246;-6.670;2023-05-19T08:05:02;99996.53;;;13.59;100.00
55916;BME280;41826;53.246;-6.670;2023-05-19T08:07:27;99977.63;;;13.70;100.00
55916;BME280;41826;53.246;-6.670;2023-05-19T08:09:52;99977.81;;;13.83;100.00
55916;BME280;41826;53.246;-6.670;2023-05-19T08:12:18;99984.44;;;13.94;100.00
55916;BME280;41826;53.246;-6.670;2023-05-19T08:14:44;99993.09;;;14.03;100.00
55916;BME280;41826;53.246;-6.670;2023-05-19T08:17:10;99989.81;;;14.01;100.00
55916;BME280;41826;53.246;-6.670;2023-05-19T08:19:35;99994.00;;;13.80;100.00
55916;BME280;41826;53.246;-6.670;2023-05-19T08:22:00;99972.69;;;13.82;100.00
55916;BME280;41826;53.246;-6.670;2023-05-19T08:24:26;99957.97;;;13.87;100.00
55916;BME280;41826;53.246;-6.670;2023-05-19T08:26:56;99963.31;;;14.09;100.00
55916;BME280;41826;53.246;-6.670;2023-05-19T08:29:22;99976.41;;;14.17;100.00
55916;BME280;41826;53.246;-6.670;2023-05-19T08:31:47;99968.28;;;14.34;100.00
55916;BME280;41826;53.246;-6.670;2023-05-19T08:34:13;99976.13;;;14.27;100.00
55916;BME280;41826;53.246;-6.670;2023-05-19T08:36:38;99980.56;;;14.41;100.00
55916;BME280;41826;53.246;-6.670;2023-05-19T08:39:04;99973.56;;;14.34;100.00
55916;BME280;41826;53.246;-6.670;2023-05-19T08:41:31;99963.53;;;14.44;100.00
55916;BME280;41826;53.246;-6.670;2023-05-19T08:43:56;99961.56;;;14.16;100.00
55916;BME280;41826;53.246;-6.670;2023-05-19T08:46:24;99940.84;;;14.13;100.00
55916;BME280;41826;53.246;-6.670;2023-05-19T08:48:53;99933.69;;;14.28;100.00
55916;BME280;41826;53.246;-6.670;2023-05-19T08:51:26;99937.66;;;14.39;100.00
55916;BME280;41826;53.246;-6.670;2023-05-19T08:54:01;99944.13;;;14.37;100.00
55916;BME280;41826;53.246;-6.670;2023-05-19T08:56:29;99951.53;;;14.26;100.00
55916;BME280;41826;53.246;-6.670;2023-05-19T08:58:56;99931.44;;;14.47;100.00
55916;BME280;41826;53.246;-6.670;2023-05-19T09:01:24;99944.47;;;14.48;100.00
55916;BME280;41826;53.246;-6.670;2023-05-19T09:03:52;99943.63;;;14.48;100.00
55916;BME280;41826;53.246;-6.670;2023-05-19T09:06:18;99945.56;;;14.54;100.00
55916;BME280;41826;53.246;-6.670;2023-05-19T09:08:46;99932.41;;;14.61;100.00
55916;BME280;41826;53.246;-6.670;2023-05-19T09:11:12;99933.50;;;14.66;100.00
55916;BME280;41826;53.246;-6.670;2023-05-19T09:13:38;99960.94;;;14.14;100.00
55916;BME280;41826;53.246;-6.670;2023-05-19T09:16:03;99962.63;;;14.00;100.00
55916;BME280;41826;53.246;-6.670;2023-05-19T09:18:29;99950.22;;;14.01;100.00
55916;BME280;41826;53.246;-6.670;2023-05-19T09:20:57;99941.31;;;14.38;100.00
55916;BME280;41826;53.246;-6.670;2023-05-19T09:23:27;99934.63;;;14.57;100.00
55916;BME280;41826;53.246;-6.670;2023-05-19T09:25:54;99943.97;;;14.38;100.00
55916;BME280;41826;53.246;-6.670;2023-05-19T09:28:27;99954.81;;;14.28;100.00
55916;BME280;41826;53.246;-6.670;2023-05-19T09:33:34;99934.09;;;14.47;100.00
55916;BME280;41826;53.246;-6.670;2023-05-19T09:36:00;99934.59;;;14.36;100.00
55916;BME280;41826;53.246;-6.670;2023-05-19T09:38:27;99915.31;;;14.78;100.00
55916;BME280;41826;53.246;-6.670;2023-05-19T09:40:57;99902.66;;;14.95;100.00
55916;BME280;41826;53.246;-6.670;2023-05-19T09:43:25;99901.53;;;14.83;100.00
55916;BME280;41826;53.246;-6.670;2023-05-19T09:46:08;99896.50;;;15.16;100.00
55916;BME280;41826;53.246;-6.670;2023-05-19T09:48:35;99913.22;;;14.95;100.00
55916;BME280;41826;53.246;-6.670;2023-05-19T09:51:02;99898.66;;;15.06;100.00
55916;BME280;41826;53.246;-6.670;2023-05-19T09:53:29;99892.75;;;15.32;100.00
55916;BME280;41826;53.246;-6.670;2023-05-19T09:55:59;99889.16;;;15.46;100.00
55916;BME280;41826;53.246;-6.670;2023-05-19T09:58:30;99922.19;;;14.94;100.00
55916;BME280;41826;53.246;-6.670;2023-05-19T10:00:57;99962.75;;;14.28;100.00
55916;BME280;41826;53.246;-6.670;2023-05-19T10:03:22;99935.88;;;14.83;100.00
55916;BME280;41826;53.246;-6.670;2023-05-19T10:05:49;99967.38;;;14.26;100.00
55916;BME280;41826;53.246;-6.670;2023-05-19T10:08:16;100003.91;;;13.93;100.00
55916;BME280;41826;53.246;-6.670;2023-05-19T10:10:44;99999.59;;;14.37;100.00
55916;BME280;41826;53.246;-6.670;2023-05-19T10:13:11;99982.69;;;14.67;100.00
55916;BME280;41826;53.246;-6.670;2023-05-19T10:15:36;99946.94;;;15.14;100.00
55916;BME280;41826;53.246;-6.670;2023-05-19T10:18:02;99922.06;;;15.37;100.00
55916;BME280;41826;53.246;-6.670;2023-05-19T10:20:28;99928.94;;;15.31;100.00
55916;BME280;41826;53.246;-6.670;2023-05-19T10:22:53;99929.28;;;15.22;100.00
55916;BME280;41826;53.246;-6.670;2023-05-19T10:25:21;99947.59;;;14.95;100.00
55916;BME280;41826;53.246;-6.670;2023-05-19T10:27:54;99933.50;;;15.44;100.00
55916;BME280;41826;53.246;-6.670;2023-05-19T10:30:28;99909.69;;;15.72;100.00
55916;BME280;41826;53.246;-6.670;2023-05-19T10:32:55;99903.63;;;15.85;100.00
55916;BME280;41826;53.246;-6.670;2023-05-19T10:38:26;99896.19;;;16.09;100.00
55916;BME280;41826;53.246;-6.670;2023-05-19T10:41:06;99918.34;;;16.08;100.00
55916;BME280;41826;53.246;-6.670;2023-05-19T10:43:51;99931.97;;;15.28;100.00
55916;BME280;41826;53.246;-6.670;2023-05-19T10:46:25;99899.28;;;15.71;100.00
55916;BME280;41826;53.246;-6.670;2023-05-19T10:48:51;99889.41;;;15.99;100.00
55916;BME280;41826;53.246;-6.670;2023-05-19T10:51:16;99888.66;;;16.06;100.00
55916;BME280;41826;53.246;-6.670;2023-05-19T10:53:42;99897.06;;;16.29;100.00
55916;BME280;41826;53.246;-6.670;2023-05-19T10:56:11;99909.25;;;16.30;100.00
55916;BME280;41826;53.246;-6.670;2023-05-19T10:58:38;99919.47;;;16.33;100.00
55916;BME280;41826;53.246;-6.670;2023-05-19T11:01:21;99933.78;;;16.59;100.00
55916;BME280;41826;53.246;-6.670;2023-05-19T11:03:54;99954.78;;;16.60;100.00
55916;BME280;41826;53.246;-6.670;2023-05-19T11:06:31;99963.72;;;16.53;100.00
55916;BME280;41826;53.246;-6.670;2023-05-19T11:08:59;99975.16;;;16.60;100.00
55916;BME280;41826;53.246;-6.670;2023-05-19T11:11:26;99980.09;;;16.76;100.00
55916;BME280;41826;53.246;-6.670;2023-05-19T11:13:53;99989.47;;;16.72;100.00
55916;BME280;41826;53.246;-6.670;2023-05-19T11:16:28;100032.19;;;16.42;100.00
55916;BME280;41826;53.246;-6.670;2023-05-19T11:18:57;99997.97;;;16.47;100.00
55916;BME280;41826;53.246;-6.670;2023-05-19T11:21:23;100002.88;;;16.57;100.00
55916;BME280;41826;53.246;-6.670;2023-05-19T11:23:50;100025.63;;;16.32;100.00
55916;BME280;41826;53.246;-6.670;2023-05-19T11:26:38;100002.91;;;16.64;100.00
55916;BME280;41826;53.246;-6.670;2023-05-19T11:29:04;100013.19;;;16.87;100.00
55916;BME280;41826;53.246;-6.670;2023-05-19T11:31:30;100042.38;;;16.45;100.00
55916;BME280;41826;53.246;-6.670;2023-05-19T11:33:56;100059.78;;;16.68;100.00
55916;BME280;41826;53.246;-6.670;2023-05-19T11:36:22;100086.94;;;16.35;100.00
55916;BME280;41826;53.246;-6.670;2023-05-19T11:38:48;100044.41;;;16.92;100.00
55916;BME280;41826;53.246;-6.670;2023-05-19T11:41:14;100111.16;;;16.25;100.00
55916;BME280;41826;53.246;-6.670;2023-05-19T11:43:40;100061.31;;;16.01;100.00
55916;BME280;41826;53.246;-6.670;2023-05-19T11:46:08;100039.13;;;16.43;100.00
55916;BME280;41826;53.246;-6.670;2023-05-19T11:48:34;100038.88;;;16.86;100.00
55916;BME280;41826;53.246;-6.670;2023-05-19T11:50:59;100044.53;;;16.77;100.00
55916;BME280;41826;53.246;-6.670;2023-05-19T11:53:25;100054.41;;;17.16;100.00
55916;BME280;41826;53.246;-6.670;2023-05-19T11:55:55;100084.00;;;17.13;100.00
55916;BME280;41826;53.246;-6.670;2023-05-19T11:58:27;100092.56;;;16.60;100.00
55916;BME280;41826;53.246;-6.670;2023-05-19T12:00:52;100067.81;;;16.81;100.00
55916;BME280;41826;53.246;-6.670;2023-05-19T12:03:20;100046.66;;;17.21;100.00
55916;BME280;41826;53.246;-6.670;2023-05-19T12:05:47;100094.03;;;17.44;100.00
55916;BME280;41826;53.246;-6.670;2023-05-19T12:08:13;100131.78;;;17.46;100.00
55916;BME280;41826;53.246;-6.670;2023-05-19T12:10:39;100135.69;;;17.57;100.00
55916;BME280;41826;53.246;-6.670;2023-05-19T12:13:05;100149.34;;;17.41;100.00
55916;BME280;41826;53.246;-6.670;2023-05-19T12:15:33;100161.84;;;17.73;100.00
55916;BME280;41826;53.246;-6.670;2023-05-19T12:18:00;100225.50;;;17.47;100.00
55916;BME280;41826;53.246;-6.670;2023-05-19T12:20:29;100196.97;;;17.01;100.00
55916;BME280;41826;53.246;-6.670;2023-05-19T12:23:00;100173.78;;;17.16;100.00
55916;BME280;41826;53.246;-6.670;2023-05-19T12:25:27;100199.16;;;17.52;100.00
55916;BME280;41826;53.246;-6.670;2023-05-19T12:27:57;100283.28;;;16.75;100.00
55916;BME280;41826;53.246;-6.670;2023-05-19T12:30:26;100229.91;;;16.78;100.00
55916;BME280;41826;53.246;-6.670;2023-05-19T12:32:54;100168.16;;;16.91;100.00
55916;BME280;41826;53.246;-6.670;2023-05-19T12:35:28;100171.19;;;17.29;100.00
55916;BME280;41826;53.246;-6.670;2023-05-19T12:37:54;100250.13;;;17.27;100.00
55916;BME280;41826;53.246;-6.670;2023-05-19T12:40:19;100261.66;;;16.72;100.00
55916;BME280;41826;53.246;-6.670;2023-05-19T12:42:46;100186.06;;;17.30;100.00
55916;BME280;41826;53.246;-6.670;2023-05-19T12:45:12;100315.84;;;16.90;100.00
55916;BME280;41826;53.246;-6.670;2023-05-19T12:47:38;100197.75;;;17.69;100.00
55916;BME280;41826;53.246;-6.670;2023-05-19T12:52:30;100344.31;;;17.51;100.00
55916;BME280;41826;53.246;-6.670;2023-05-19T12:55:04;100326.75;;;18.05;100.00
55916;BME280;41826;53.246;-6.670;2023-05-19T12:57:33;100473.78;;;17.00;100.00
55916;BME280;41826;53.246;-6.670;2023-05-19T13:00:15;100414.69;;;17.41;100.00